KDNV/DNV METAR and TAF weather

Enter ICAO airport designator
Station Type Date Time Source
KDNV METAR 2019/04/25 21:35 UTC NOAA

KDNV 252135Z AUTO 00000KT 1 1/2SM +RA OVC008 14/14 A2967 RMK AO2 P0033 T01430143


Station Type Date Time Source
KDNV Decoded METAR 2019/04/25 21:35 UTC NOAA

Danville, Vermilion County Airport, IL, United States (KDNV) 40-11-58N 087-35-44W
Apr 25, 2019 - 05:35 PM EDT / 2019.04.25 2135 UTC
Wind: Calm:0
Visibility: 1 1/2 mile(s):0
Sky conditions: overcast
Weather: heavy rain
Precipitation last hour: 0.33 inches
Temperature: 57.7 F (14.3 C)
Dew Point: 57.7 F (14.3 C)
Relative Humidity: 100%
Pressure (altimeter): 29.67 in. Hg (1004 hPa)
ob: KDNV 252135Z AUTO 00000KT 1 1/2SM +RA OVC008 14/14 A2967 RMK AO2 P0033 T01430143
cycle: 21

Station Type Date Time Source
KDNV TAF UTC NOAA

Error!

Example: see airport list